Time;durP1;ratioP1;P1;durP2;ratioP2;P2;SDS_P1;SDS_P2;PMS_P1;PMS_P2;Temp;Humidity;BMP_temperature;BMP_pressure;BME280_temperature;BME280_humidity;BME280_pressure;Samples;Min_cycle;Max_cycle;Signal;HPM_P1;HPM_P2
2022/12/04 00:00:23;;;;;;;16.08;6.80;;;;;;;;;;1037041;28;20018;-76
2022/12/04 00:00:54;;;;;;;16.73;7.20;;;;;;;;;;1037394;28;20060;-76
2022/12/04 00:01:25;;;;;;;14.10;6.97;;;;;;;;;;1036808;28;20071;-76
2022/12/04 00:01:56;;;;;;;17.70;9.10;;;;;;;;;;1037220;28;20025;-76
2022/12/04 00:02:26;;;;;;;17.67;7.07;;;;;;;;;;1037372;28;20037;-76
2022/12/04 00:02:57;;;;;;;23.02;7.63;;;;;;;;;;1037357;28;20029;-76
2022/12/04 00:03:28;;;;;;;20.52;7.15;;;;;;;;;;1037263;28;20029;-76
2022/12/04 00:03:59;;;;;;;11.82;5.70;;;;;;;;;;1036980;28;20030;-76
2022/12/04 00:04:30;;;;;;;14.30;6.43;;;;;;;;;;1037360;28;20030;-76
2022/12/04 00:05:04;;;;;;;18.05;7.32;;;;;;;;;;1036085;28;20025;-76
2022/12/04 00:05:35;;;;;;;12.43;5.60;;;;;;;;;;1036945;28;20397;-76
2022/12/04 00:06:10;;;;;;;12.43;6.78;;;;;;;;;;1037262;28;20030;-76
2022/12/04 00:06:40;;;;;;;21.77;7.32;;;;;;;;;;1037004;28;20014;-76
2022/12/04 00:07:11;;;;;;;14.93;6.15;;;;;;;;;;1034718;28;20022;-76
2022/12/04 00:07:42;;;;;;;18.17;7.70;;;;;;;;;;1035645;28;20108;-76
2022/12/04 00:08:13;;;;;;;23.55;7.10;;;;;;;;;;1037195;28;20508;-76
2022/12/04 00:08:44;;;;;;;17.65;7.78;;;;;;;;;;1037223;28;20033;-76
2022/12/04 00:09:15;;;;;;;17.52;7.93;;;;;;;;;;1037424;28;20117;-76
2022/12/04 00:09:45;;;;;;;16.23;6.78;;;;;;;;;;1036383;28;20392;-76
2022/12/04 00:10:16;;;;;;;23.33;7.97;;;;;;;;;;1036231;28;20025;-76
2022/12/04 00:10:47;;;;;;;15.88;8.07;;;;;;;;;;1036926;28;20104;-76
2022/12/04 00:11:18;;;;;;;22.10;8.20;;;;;;;;;;1037011;28;20026;-76
2022/12/04 00:11:49;;;;;;;15.65;8.13;;;;;;;;;;1037727;28;20535;-76
2022/12/04 00:12:20;;;;;;;19.42;7.75;;;;;;;;;;1037443;28;20055;-76
2022/12/04 00:12:50;;;;;;;15.50;7.22;;;;;;;;;;1038448;28;20021;-76
2022/12/04 00:13:21;;;;;;;15.75;7.28;;;;;;;;;;1036921;28;20517;-76
2022/12/04 00:13:52;;;;;;;14.63;7.60;;;;;;;;;;1037381;28;20054;-76
2022/12/04 00:14:22;;;;;;;15.68;6.38;;;;;;;;;;1035131;28;20024;-76
2022/12/04 00:14:53;;;;;;;15.60;7.80;;;;;;;;;;1035218;28;20024;-76
2022/12/04 00:15:24;;;;;;;15.95;7.28;;;;;;;;;;1044621;23;20022;-76
2022/12/04 00:15:54;;;;;;;14.10;7.00;;;;;;;;;;1039258;28;20026;-76
2022/12/04 00:16:28;;;;;;;17.92;7.60;;;;;;;;;;1039704;28;20018;-76
2022/12/04 00:16:58;;;;;;;14.77;7.75;;;;;;;;;;1039480;28;20021;-76
2022/12/04 00:17:29;;;;;;;18.63;6.88;;;;;;;;;;1039563;28;20068;-76
2022/12/04 00:17:59;;;;;;;13.63;6.57;;;;;;;;;;1039583;28;20026;-76
2022/12/04 00:18:30;;;;;;;16.60;6.78;;;;;;;;;;1039320;28;20033;-76
2022/12/04 00:19:01;;;;;;;14.65;6.72;;;;;;;;;;1038132;28;20028;-76
2022/12/04 00:19:31;;;;;;;16.48;6.47;;;;;;;;;;1039300;28;20436;-76
2022/12/04 00:20:02;;;;;;;16.80;6.70;;;;;;;;;;1039215;28;20469;-76
2022/12/04 00:20:33;;;;;;;13.60;5.78;;;;;;;;;;1039270;28;20470;-76
2022/12/04 00:21:05;;;;;;;11.52;6.10;;;;;;;;;;1037138;28;20025;-76
2022/12/04 00:21:36;;;;;;;16.73;7.25;;;;;;;;;;1037259;28;20033;-76
2022/12/04 00:22:06;;;;;;;13.48;6.32;;;;;;;;;;1037542;28;20041;-76
2022/12/04 00:22:37;;;;;;;15.48;7.38;;;;;;;;;;1037245;28;20021;-75
2022/12/04 00:23:07;;;;;;;14.73;5.15;;;;;;;;;;1035052;28;20071;-75
2022/12/04 00:23:38;;;;;;;19.80;6.80;;;;;;;;;;1033236;28;20557;-75
2022/12/04 00:24:09;;;;;;;19.38;6.88;;;;;;;;;;1033129;28;20057;-74
2022/12/04 00:24:39;;;;;;;12.50;4.97;;;;;;;;;;1035367;28;20026;-76
2022/12/04 00:25:10;;;;;;;16.60;6.90;;;;;;;;;;1039110;28;20420;-76
2022/12/04 00:25:41;;;;;;;14.50;7.10;;;;;;;;;;1039053;28;20366;-76
2022/12/04 00:26:13;;;;;;;16.88;6.68;;;;;;;;;;1037178;28;20056;-76
2022/12/04 00:26:43;;;;;;;16.38;6.13;;;;;;;;;;1033125;28;20027;-76
2022/12/04 00:27:14;;;;;;;16.67;7.22;;;;;;;;;;1033251;28;20030;-76
2022/12/04 00:27:44;;;;;;;17.10;7.05;;;;;;;;;;1035427;28;20116;-76
2022/12/04 00:28:15;;;;;;;15.77;6.90;;;;;;;;;;1039296;28;20469;-76
2022/12/04 00:28:47;;;;;;;13.88;6.72;;;;;;;;;;1042495;28;20021;-76
2022/12/04 00:29:18;;;;;;;15.20;7.45;;;;;;;;;;1039045;28;20025;-76
2022/12/04 00:29:48;;;;;;;14.57;7.50;;;;;;;;;;1039265;28;20025;-76
2022/12/04 00:30:19;;;;;;;17.77;7.78;;;;;;;;;;1039204;28;20607;-76
2022/12/04 00:30:49;;;;;;;15.50;6.93;;;;;;;;;;1039391;28;20027;-76
2022/12/04 00:31:21;;;;;;;13.00;6.45;;;;;;;;;;1039084;28;20030;-76
2022/12/04 00:31:52;;;;;;;19.73;7.00;;;;;;;;;;1037545;28;20087;-76
2022/12/04 00:32:22;;;;;;;16.92;6.80;;;;;;;;;;1039301;28;20092;-76
2022/12/04 00:32:53;;;;;;;14.73;6.80;;;;;;;;;;1039311;28;20030;-76
2022/12/04 00:33:23;;;;;;;15.48;7.82;;;;;;;;;;1039158;28;20028;-76
2022/12/04 00:33:54;;;;;;;14.68;7.03;;;;;;;;;;1039149;28;20032;-76
2022/12/04 00:34:25;;;;;;;18.38;8.60;;;;;;;;;;1039309;28;20194;-76
2022/12/04 00:34:55;;;;;;;14.30;6.82;;;;;;;;;;1039000;28;20026;-76
2022/12/04 00:35:26;;;;;;;20.15;8.60;;;;;;;;;;1035032;28;20026;-76
2022/12/04 00:35:57;;;;;;;16.48;7.75;;;;;;;;;;1035027;28;20033;-76
2022/12/04 00:36:28;;;;;;;23.15;9.18;;;;;;;;;;1035294;28;20161;-76
2022/12/04 00:36:59;;;;;;;18.33;8.15;;;;;;;;;;1039142;28;20196;-76
2022/12/04 00:37:29;;;;;;;18.33;7.97;;;;;;;;;;1043192;28;20027;-76
2022/12/04 00:38:00;;;;;;;17.92;8.10;;;;;;;;;;1039101;28;20017;-76
2022/12/04 00:38:30;;;;;;;23.58;9.60;;;;;;;;;;1039324;28;20040;-76
2022/12/04 00:39:01;;;;;;;17.95;8.57;;;;;;;;;;1037256;28;20009;-76
2022/12/04 00:39:32;;;;;;;15.02;7.97;;;;;;;;;;1037164;28;20025;-76
2022/12/04 00:40:02;;;;;;;21.60;11.07;;;;;;;;;;1039205;28;20076;-76
2022/12/04 00:40:33;;;;;;;18.30;9.98;;;;;;;;;;1038839;28;20029;-76
2022/12/04 00:41:04;;;;;;;23.20;10.23;;;;;;;;;;1038713;28;20021;-76
2022/12/04 00:41:34;;;;;;;25.63;10.02;;;;;;;;;;1039537;28;20030;-76
2022/12/04 00:42:05;;;;;;;17.27;7.68;;;;;;;;;;1039582;28;20022;-76
2022/12/04 00:42:36;;;;;;;17.30;7.50;;;;;;;;;;1039260;28;20492;-76
2022/12/04 00:43:06;;;;;;;22.83;9.63;;;;;;;;;;1039159;28;20018;-76
2022/12/04 00:43:37;;;;;;;20.40;10.02;;;;;;;;;;1037313;28;20033;-76
2022/12/04 00:44:07;;;;;;;24.77;10.32;;;;;;;;;;1037231;28;20026;-76
2022/12/04 00:44:38;;;;;;;24.83;9.48;;;;;;;;;;1039302;28;20036;-76
2022/12/04 00:45:09;;;;;;;22.17;9.63;;;;;;;;;;1037298;28;20045;-76
2022/12/04 00:45:39;;;;;;;23.15;10.32;;;;;;;;;;1039305;28;20072;-76
2022/12/04 00:46:10;;;;;;;21.05;8.77;;;;;;;;;;1036557;28;20030;-76
2022/12/04 00:46:41;;;;;;;19.08;9.90;;;;;;;;;;1033147;28;20026;-76
2022/12/04 00:47:12;;;;;;;22.17;10.88;;;;;;;;;;1036384;28;20040;-76
2022/12/04 00:47:42;;;;;;;29.55;12.35;;;;;;;;;;1037315;28;20156;-76
2022/12/04 00:48:13;;;;;;;24.13;10.70;;;;;;;;;;1039149;28;20045;-76
2022/12/04 00:48:44;;;;;;;24.42;11.27;;;;;;;;;;1039187;28;20024;-76
2022/12/04 00:49:14;;;;;;;34.85;11.75;;;;;;;;;;1038942;28;20436;-76
2022/12/04 00:49:45;;;;;;;24.30;11.30;;;;;;;;;;1039183;28;20028;-76
2022/12/04 00:50:15;;;;;;;24.60;10.95;;;;;;;;;;1039055;28;20030;-76
2022/12/04 00:50:46;;;;;;;24.50;10.32;;;;;;;;;;1039428;28;20026;-76
2022/12/04 00:51:18;;;;;;;25.40;11.45;;;;;;;;;;1039175;28;20025;-76
2022/12/04 00:51:48;;;;;;;20.35;9.25;;;;;;;;;;1039595;28;20032;-76
2022/12/04 00:52:19;;;;;;;28.63;11.20;;;;;;;;;;1039489;28;20405;-76
2022/12/04 00:52:49;;;;;;;21.40;10.52;;;;;;;;;;1039633;28;20049;-76
2022/12/04 00:53:20;;;;;;;25.10;10.68;;;;;;;;;;1039083;28;20076;-76
2022/12/04 00:53:51;;;;;;;19.88;10.60;;;;;;;;;;1039329;28;20439;-76
2022/12/04 00:54:21;;;;;;;26.45;11.00;;;;;;;;;;1039182;28;20039;-76
2022/12/04 00:54:52;;;;;;;30.73;12.57;;;;;;;;;;1039253;28;20155;-76
2022/12/04 00:55:23;;;;;;;21.55;10.07;;;;;;;;;;1039435;28;20391;-76
2022/12/04 00:55:53;;;;;;;26.17;11.38;;;;;;;;;;1039369;28;20528;-76
2022/12/04 00:56:25;;;;;;;29.98;11.20;;;;;;;;;;1039608;28;20463;-76
2022/12/04 00:56:56;;;;;;;22.60;8.82;;;;;;;;;;1039091;28;20044;-76
2022/12/04 00:57:27;;;;;;;19.27;10.00;;;;;;;;;;1039458;28;20892;-76
2022/12/04 00:57:57;;;;;;;24.38;10.32;;;;;;;;;;1039501;28;20099;-76
2022/12/04 00:58:28;;;;;;;24.08;12.45;;;;;;;;;;1039573;28;20033;-76
2022/12/04 00:59:00;;;;;;;21.00;10.43;;;;;;;;;;1039476;28;20078;-76
2022/12/04 00:59:30;;;;;;;20.70;10.48;;;;;;;;;;1039417;28;20025;-76
2022/12/04 01:00:01;;;;;;;22.80;10.27;;;;;;;;;;1038974;28;20400;-76
2022/12/04 01:00:31;;;;;;;25.38;11.30;;;;;;;;;;1037999;28;20032;-76
2022/12/04 01:01:03;;;;;;;22.35;10.52;;;;;;;;;;1038771;28;20459;-76
2022/12/04 01:01:34;;;;;;;23.63;11.10;;;;;;;;;;1039954;28;20540;-76
2022/12/04 01:02:04;;;;;;;23.75;10.93;;;;;;;;;;1040259;28;20057;-76
2022/12/04 01:02:35;;;;;;;23.88;9.50;;;;;;;;;;1040384;28;20112;-76
2022/12/04 01:03:06;;;;;;;22.02;11.77;;;;;;;;;;1039846;28;20040;-76
2022/12/04 01:03:37;;;;;;;27.63;12.07;;;;;;;;;;1040124;28;20021;-76
2022/12/04 01:04:07;;;;;;;30.77;13.10;;;;;;;;;;1035633;28;20115;-76
2022/12/04 01:04:38;;;;;;;22.48;11.93;;;;;;;;;;1036129;28;20100;-76
2022/12/04 01:05:09;;;;;;;31.50;12.45;;;;;;;;;;1039720;28;20028;-76
2022/12/04 01:05:41;;;;;;;27.42;13.35;;;;;;;;;;1039804;28;20108;-76
2022/12/04 01:06:18;;;;;;;28.95;12.82;;;;;;;;;;1040130;28;20028;-76
2022/12/04 01:06:49;;;;;;;24.13;10.88;;;;;;;;;;1040361;28;20071;-76
2022/12/04 01:07:19;;;;;;;29.17;11.43;;;;;;;;;;1040124;28;20071;-76
2022/12/04 01:07:50;;;;;;;26.95;11.88;;;;;;;;;;1039952;28;20032;-76
2022/12/04 01:08:20;;;;;;;22.30;10.68;;;;;;;;;;1039951;28;20512;-76
2022/12/04 01:08:52;;;;;;;23.67;10.57;;;;;;;;;;1040157;28;20519;-76
2022/12/04 01:09:22;;;;;;;25.35;11.85;;;;;;;;;;1039816;28;20374;-76
2022/12/04 01:09:53;;;;;;;27.58;9.90;;;;;;;;;;1040202;28;20560;-76
2022/12/04 01:10:23;;;;;;;22.95;12.45;;;;;;;;;;1040165;28;20021;-76
2022/12/04 01:10:54;;;;;;;27.35;10.90;;;;;;;;;;1040154;28;20072;-76
2022/12/04 01:11:25;;;;;;;32.22;11.27;;;;;;;;;;1039686;28;20122;-76
2022/12/04 01:11:56;;;;;;;28.95;11.50;;;;;;;;;;1039387;28;20116;-76
2022/12/04 01:12:26;;;;;;;27.02;9.40;;;;;;;;;;1039871;28;20496;-76
2022/12/04 01:12:57;;;;;;;26.83;11.38;;;;;;;;;;1039946;28;20021;-76
2022/12/04 01:13:28;;;;;;;21.92;10.93;;;;;;;;;;1039877;28;20076;-76
2022/12/04 01:13:59;;;;;;;21.05;11.23;;;;;;;;;;1039915;28;20021;-76
2022/12/04 01:14:29;;;;;;;28.02;12.63;;;;;;;;;;1039651;28;20049;-76
2022/12/04 01:15:00;;;;;;;23.77;10.25;;;;;;;;;;1039844;28;20057;-76
2022/12/04 01:15:30;;;;;;;24.25;13.30;;;;;;;;;;1039845;28;20029;-77
2022/12/04 01:16:01;;;;;;;30.77;14.15;;;;;;;;;;1039877;28;20025;-77
2022/12/04 01:16:35;;;;;;;23.75;12.18;;;;;;;;;;1039824;28;20107;-77
2022/12/04 01:17:06;;;;;;;26.58;11.57;;;;;;;;;;1039868;28;20476;-77
2022/12/04 01:17:36;;;;;;;22.17;10.52;;;;;;;;;;1039935;28;20029;-77
2022/12/04 01:18:07;;;;;;;24.88;12.30;;;;;;;;;;1039891;28;20036;-77
2022/12/04 01:18:37;;;;;;;24.58;11.30;;;;;;;;;;1039895;28;20123;-77
2022/12/04 01:19:10;;;;;;;31.33;11.07;;;;;;;;;;1039783;28;20018;-77
2022/12/04 01:19:40;;;;;;;24.80;10.07;;;;;;;;;;1039482;28;20120;-77
2022/12/04 01:20:15;;;;;;;23.15;12.15;;;;;;;;;;1039822;28;20026;-77
2022/12/04 01:20:47;;;;;;;20.90;9.48;;;;;;;;;;1040199;28;20049;-77
2022/12/04 01:21:18;;;;;;;25.08;9.32;;;;;;;;;;1038753;28;20127;-77
2022/12/04 01:21:49;;;;;;;31.58;11.63;;;;;;;;;;1039845;28;20123;-77
2022/12/04 01:22:19;;;;;;;40.08;13.00;;;;;;;;;;1035639;28;20117;-77
2022/12/04 01:22:50;;;;;;;26.02;10.35;;;;;;;;;;1035822;28;20022;-77
2022/12/04 01:23:20;;;;;;;21.25;10.25;;;;;;;;;;1031719;28;20022;-77
2022/12/04 01:23:51;;;;;;;23.15;10.15;;;;;;;;;;1035819;28;20030;-77
2022/12/04 01:24:21;;;;;;;24.92;10.05;;;;;;;;;;1035884;28;20520;-77
2022/12/04 01:24:55;;;;;;;24.10;10.48;;;;;;;;;;1035815;28;20022;-77
2022/12/04 01:25:25;;;;;;;25.63;10.55;;;;;;;;;;1039813;28;20013;-77
2022/12/04 01:25:57;;;;;;;22.63;10.55;;;;;;;;;;1039678;28;20108;-77
2022/12/04 01:26:28;;;;;;;22.92;11.27;;;;;;;;;;1039986;28;20551;-77
2022/12/04 01:26:58;;;;;;;33.17;13.10;;;;;;;;;;1040137;28;20060;-77
2022/12/04 01:27:29;;;;;;;29.63;13.02;;;;;;;;;;1039870;28;20080;-77
2022/12/04 01:27:59;;;;;;;26.33;12.52;;;;;;;;;;1039491;28;20532;-77
2022/12/04 01:28:30;;;;;;;26.27;11.63;;;;;;;;;;1039940;28;20021;-77
2022/12/04 01:29:01;;;;;;;26.13;12.57;;;;;;;;;;1039757;28;20032;-77
2022/12/04 01:29:31;;;;;;;29.83;11.18;;;;;;;;;;1040041;28;20025;-77
2022/12/04 01:30:02;;;;;;;27.67;13.20;;;;;;;;;;1040111;28;20076;-77
2022/12/04 01:30:33;;;;;;;31.17;11.07;;;;;;;;;;1040232;28;20064;-77
2022/12/04 01:31:05;;;;;;;26.83;10.13;;;;;;;;;;1040191;28;20017;-77
2022/12/04 01:31:35;;;;;;;28.63;11.10;;;;;;;;;;1040141;28;20025;-77
2022/12/04 01:32:06;;;;;;;25.70;11.30;;;;;;;;;;1040161;28;20398;-77
2022/12/04 01:32:36;;;;;;;25.80;11.38;;;;;;;;;;1039901;28;20393;-77
2022/12/04 01:33:07;;;;;;;29.15;12.77;;;;;;;;;;1039757;28;20025;-77
2022/12/04 01:33:38;;;;;;;35.80;13.07;;;;;;;;;;1039795;28;20025;-77
2022/12/04 01:34:09;;;;;;;23.65;11.77;;;;;;;;;;1039866;28;20493;-77
2022/12/04 01:34:39;;;;;;;24.67;10.60;;;;;;;;;;1039943;28;20029;-77
2022/12/04 01:35:10;;;;;;;25.05;13.50;;;;;;;;;;1039609;28;20022;-77
2022/12/04 01:35:41;;;;;;;28.52;13.00;;;;;;;;;;1039582;28;20488;-77
2022/12/04 01:36:12;;;;;;;21.80;11.43;;;;;;;;;;1040188;28;20021;-77
2022/12/04 01:36:43;;;;;;;23.27;11.90;;;;;;;;;;1039708;28;20032;-77
2022/12/04 01:37:14;;;;;;;23.30;10.55;;;;;;;;;;1039783;28;20495;-77
2022/12/04 01:37:44;;;;;;;28.58;12.35;;;;;;;;;;1039842;28;20025;-77
2022/12/04 01:38:15;;;;;;;32.65;14.20;;;;;;;;;;1039868;28;20022;-77
2022/12/04 01:38:45;;;;;;;24.02;12.25;;;;;;;;;;1039888;28;20025;-77
2022/12/04 01:39:16;;;;;;;29.20;11.57;;;;;;;;;;1040056;28;20018;-77
2022/12/04 01:39:47;;;;;;;24.90;10.23;;;;;;;;;;1040095;28;20021;-77
2022/12/04 01:40:17;;;;;;;29.55;12.23;;;;;;;;;;1039819;28;20063;-77
2022/12/04 01:40:48;;;;;;;28.73;12.02;;;;;;;;;;1040045;28;20036;-77
2022/12/04 01:41:22;;;;;;;21.92;12.43;;;;;;;;;;1039642;28;20021;-77
2022/12/04 01:41:53;;;;;;;22.80;10.68;;;;;;;;;;1039811;28;20108;-77
2022/12/04 01:42:24;;;;;;;26.25;12.60;;;;;;;;;;1039944;28;20060;-77
2022/12/04 01:42:54;;;;;;;26.52;11.20;;;;;;;;;;1039811;28;20116;-77
2022/12/04 01:43:28;;;;;;;25.33;11.05;;;;;;;;;;1040085;28;20476;-77
2022/12/04 01:44:24;;;;;;;23.52;10.60;;;;;;;;;;1039850;28;20017;-77
2022/12/04 01:45:13;;;;;;;33.15;12.32;;;;;;;;;;1037439;28;20037;-77
2022/12/04 01:45:46;;;;;;;15.88;9.20;;;;;;;;;;1040125;28;20373;-77
2022/12/04 01:46:16;;;;;;;34.30;12.57;;;;;;;;;;1040025;28;20021;-77
2022/12/04 01:46:57;;;;;;;30.20;11.93;;;;;;;;;;1040215;28;20021;-77
2022/12/04 01:47:28;;;;;;;25.63;10.80;;;;;;;;;;1040046;28;20124;-77
2022/12/04 01:48:04;;;;;;;30.92;12.65;;;;;;;;;;1039557;28;20026;-77
2022/12/04 01:48:35;;;;;;;29.23;11.50;;;;;;;;;;1039804;28;20009;-77
2022/12/04 01:49:07;;;;;;;27.67;10.82;;;;;;;;;;1039569;28;20021;-77
2022/12/04 01:49:43;;;;;;;32.33;11.50;;;;;;;;;;1039740;28;20682;-77
2022/12/04 01:50:14;;;;;;;27.08;12.15;;;;;;;;;;1039591;28;20028;-77
2022/12/04 01:50:45;;;;;;;29.55;11.88;;;;;;;;;;1039840;28;20052;-77
2022/12/04 01:51:24;;;;;;;25.52;9.13;;;;;;;;;;1039530;28;20025;-77
2022/12/04 01:51:59;;;;;;;25.52;10.38;;;;;;;;;;1039611;28;20025;-77
2022/12/04 01:52:29;;;;;;;30.98;11.10;;;;;;;;;;1039814;28;20171;-77
2022/12/04 01:53:00;;;;;;;28.30;11.25;;;;;;;;;;1039451;28;20599;-76
2022/12/04 01:53:32;;;;;;;27.00;9.88;;;;;;;;;;1039579;28;20026;-76
2022/12/04 01:54:06;;;;;;;26.08;11.77;;;;;;;;;;1039600;28;20067;-76
2022/12/04 01:54:39;;;;;;;19.98;9.02;;;;;;;;;;1039881;28;20017;-76
2022/12/04 01:55:10;;;;;;;28.08;11.00;;;;;;;;;;1039570;28;20072;-76
2022/12/04 01:55:41;;;;;;;26.77;11.90;;;;;;;;;;1036440;28;20014;-76
2022/12/04 01:56:13;;;;;;;33.10;12.95;;;;;;;;;;1037127;28;20381;-76
2022/12/04 01:56:49;;;;;;;31.55;13.65;;;;;;;;;;1037734;28;20022;-76
2022/12/04 01:57:21;;;;;;;32.50;11.40;;;;;;;;;;1038480;28;20025;-76
2022/12/04 01:57:52;;;;;;;38.33;13.02;;;;;;;;;;1039914;28;20730;-76
2022/12/04 01:58:26;;;;;;;26.40;11.77;;;;;;;;;;1040087;28;20049;-76
2022/12/04 01:58:57;;;;;;;31.05;11.50;;;;;;;;;;1039511;28;20495;-76
2022/12/04 01:59:31;;;;;;;25.48;11.52;;;;;;;;;;1040025;28;20465;-76
2022/12/04 02:00:04;;;;;;;20.10;9.82;;;;;;;;;;1039385;28;20083;-76
2022/12/04 02:00:35;;;;;;;23.05;10.38;;;;;;;;;;1039008;28;20017;-76
2022/12/04 02:01:06;;;;;;;22.40;11.35;;;;;;;;;;1039327;28;20473;-76
2022/12/04 02:01:43;;;;;;;23.80;12.07;;;;;;;;;;1039804;28;20119;-76
2022/12/04 02:02:15;;;;;;;35.30;11.20;;;;;;;;;;1039810;28;20021;-76
2022/12/04 02:02:46;;;;;;;24.83;11.05;;;;;;;;;;1039930;28;20132;-76
2022/12/04 02:03:16;;;;;;;27.95;11.55;;;;;;;;;;1039589;28;20025;-76
2022/12/04 02:03:48;;;;;;;34.10;12.00;;;;;;;;;;1039770;28;20017;-76
2022/12/04 02:04:19;;;;;;;28.52;12.32;;;;;;;;;;1039496;28;20521;-76
2022/12/04 02:04:49;;;;;;;29.10;12.55;;;;;;;;;;1039607;28;20087;-76
2022/12/04 02:05:21;;;;;;;24.45;11.45;;;;;;;;;;1037508;28;20609;-76
2022/12/04 02:05:51;;;;;;;22.92;10.13;;;;;;;;;;1037766;28;20061;-76
2022/12/04 02:06:22;;;;;;;30.90;11.75;;;;;;;;;;1037823;28;20525;-76
2022/12/04 02:06:52;;;;;;;27.45;12.05;;;;;;;;;;1041878;28;20427;-76
2022/12/04 02:07:23;;;;;;;34.67;11.75;;;;;;;;;;1039908;28;20025;-76
2022/12/04 02:07:56;;;;;;;36.35;12.48;;;;;;;;;;1040001;28;20021;-76
2022/12/04 02:08:27;;;;;;;26.10;12.00;;;;;;;;;;1039527;28;20171;-76
2022/12/04 02:08:58;;;;;;;22.27;11.05;;;;;;;;;;1039560;28;20018;-76
2022/12/04 02:09:30;;;;;;;21.40;10.70;;;;;;;;;;1039614;28;20116;-76
2022/12/04 02:10:02;;;;;;;27.02;10.80;;;;;;;;;;1039601;28;20026;-76
2022/12/04 02:10:50;;;;;;;26.23;11.38;;;;;;;;;;1039624;28;20028;-76
2022/12/04 02:11:33;;;;;;;21.50;9.82;;;;;;;;;;1038866;28;20037;-76
2022/12/04 02:12:16;;;;;;;27.63;10.45;;;;;;;;;;1038769;28;20029;-76
2022/12/04 02:12:59;;;;;;;38.53;12.30;;;;;;;;;;1039227;28;20026;-76
2022/12/04 02:13:39;;;;;;;27.73;10.00;;;;;;;;;;1039455;28;20091;-76
2022/12/04 02:14:25;;;;;;;26.45;10.88;;;;;;;;;;1039620;28;20033;-76
2022/12/04 02:15:08;;;;;;;21.10;11.57;;;;;;;;;;1039506;28;20543;-76
2022/12/04 02:15:44;;;;;;;22.55;9.80;;;;;;;;;;1039733;28;20025;-76
2022/12/04 02:16:32;;;;;;;26.75;11.55;;;;;;;;;;1039382;28;20021;-76
2022/12/04 02:17:16;;;;;;;25.10;9.35;;;;;;;;;;1038575;28;20381;-76
2022/12/04 02:17:51;;;;;;;23.23;9.93;;;;;;;;;;1039710;28;20033;-76
2022/12/04 02:18:30;;;;;;;29.75;10.23;;;;;;;;;;1039083;28;20028;-76
2022/12/04 02:19:01;;;;;;;27.35;9.57;;;;;;;;;;1039542;28;20029;-76
2022/12/04 02:19:40;;;;;;;22.40;10.30;;;;;;;;;;1035431;28;20342;-76
2022/12/04 02:20:14;;;;;;;37.63;11.20;;;;;;;;;;1037920;28;20026;-76
2022/12/04 02:20:51;;;;;;;24.95;10.85;;;;;;;;;;1039697;28;20029;-76
2022/12/04 02:21:34;;;;;;;23.83;10.43;;;;;;;;;;1039575;28;20017;-76
2022/12/04 02:22:09;;;;;;;20.77;9.85;;;;;;;;;;1034673;28;20112;-76
2022/12/04 02:22:54;;;;;;;24.60;10.18;;;;;;;;;;1038880;28;20022;-76
2022/12/04 02:23:43;;;;;;;26.75;9.80;;;;;;;;;;1039518;28;20025;-76
2022/12/04 02:24:41;;;;;;;30.13;8.93;;;;;;;;;;1039489;28;20072;-76
2022/12/04 02:25:24;;;;;;;22.63;9.90;;;;;;;;;;1034477;28;20077;-76
2022/12/04 02:26:09;;;;;;;25.70;10.23;;;;;;;;;;1035345;28;20052;-76
2022/12/04 02:26:40;;;;;;;32.25;9.38;;;;;;;;;;1035433;28;20024;-76
2022/12/04 02:27:31;;;;;;;24.00;11.52;;;;;;;;;;1039085;28;20018;-76
2022/12/04 02:28:04;;;;;;;24.50;9.65;;;;;;;;;;1039250;28;20088;-76
2022/12/04 02:28:55;;;;;;;21.17;10.10;;;;;;;;;;1041936;28;20017;-76
2022/12/04 02:29:29;;;;;;;23.73;9.80;;;;;;;;;;1039837;28;20025;-76
2022/12/04 02:30:04;;;;;;;24.48;10.43;;;;;;;;;;1039861;28;20124;-76
2022/12/04 02:30:38;;;;;;;20.90;10.13;;;;;;;;;;1039975;28;20108;-76
2022/12/04 02:31:17;;;;;;;24.80;10.88;;;;;;;;;;1039813;28;20603;-76
2022/12/04 02:31:56;;;;;;;25.55;10.20;;;;;;;;;;1039754;28;20029;-76
2022/12/04 02:32:29;;;;;;;31.17;9.98;;;;;;;;;;1040074;28;20025;-76
2022/12/04 02:33:00;;;;;;;20.83;9.75;;;;;;;;;;1039719;28;20465;-76
2022/12/04 02:33:36;;;;;;;22.40;11.10;;;;;;;;;;1039918;28;20071;-76
2022/12/04 02:34:11;;;;;;;23.35;10.50;;;;;;;;;;1038988;28;20111;-76
2022/12/04 02:35:14;;;;;;;24.88;10.73;;;;;;;;;;1039626;28;20060;-76
2022/12/04 02:36:02;;;;;;;24.52;9.70;;;;;;;;;;1022923;29;20027;-76
2022/12/04 02:36:37;;;;;;;32.58;11.98;;;;;;;;;;1019955;29;20031;-76
2022/12/04 02:37:20;;;;;;;28.35;11.63;;;;;;;;;;1034786;28;20025;-76
2022/12/04 02:37:57;;;;;;;21.15;11.25;;;;;;;;;;1034672;28;20033;-76
2022/12/04 02:38:39;;;;;;;31.08;11.50;;;;;;;;;;1038696;28;20029;-76
2022/12/04 02:39:22;;;;;;;27.70;10.75;;;;;;;;;;1039071;28;20022;-76
2022/12/04 02:39:59;;;;;;;24.42;10.50;;;;;;;;;;1039468;28;20075;-76
2022/12/04 02:40:44;;;;;;;25.13;11.13;;;;;;;;;;1039260;28;20033;-76
2022/12/04 02:41:35;;;;;;;32.55;12.70;;;;;;;;;;1039495;28;20469;-76
2022/12/04 02:42:19;;;;;;;30.08;9.70;;;;;;;;;;1031625;28;20134;-76
2022/12/04 02:42:57;;;;;;;25.63;10.82;;;;;;;;;;1039950;28;20018;-76
2022/12/04 02:43:54;;;;;;;20.60;11.20;;;;;;;;;;1039818;28;20021;-76
2022/12/04 02:44:36;;;;;;;19.05;9.45;;;;;;;;;;1037167;28;20041;-76
2022/12/04 02:45:15;;;;;;;27.10;12.38;;;;;;;;;;1038972;28;21131;-76
2022/12/04 02:45:47;;;;;;;28.13;11.13;;;;;;;;;;1039729;28;20159;-76
2022/12/04 02:46:24;;;;;;;29.80;12.73;;;;;;;;;;1039546;28;20017;-76
2022/12/04 02:47:03;;;;;;;29.88;12.50;;;;;;;;;;1039129;28;20744;-76
2022/12/04 02:47:34;;;;;;;28.02;11.55;;;;;;;;;;1039290;28;20033;-76
2022/12/04 02:48:05;;;;;;;26.55;12.98;;;;;;;;;;1037300;28;20471;-76
2022/12/04 02:48:38;;;;;;;29.58;11.55;;;;;;;;;;1037779;28;20579;-76
2022/12/04 02:49:15;;;;;;;26.45;11.15;;;;;;;;;;1036996;28;20117;-76
2022/12/04 02:49:55;;;;;;;29.70;11.48;;;;;;;;;;1039535;28;20377;-76
2022/12/04 02:50:26;;;;;;;29.25;13.82;;;;;;;;;;1039946;28;20022;-76
2022/12/04 02:50:58;;;;;;;35.83;13.38;;;;;;;;;;1039393;28;20029;-76
2022/12/04 02:51:32;;;;;;;34.88;14.20;;;;;;;;;;1035362;28;20026;-76
2022/12/04 02:52:05;;;;;;;31.60;15.98;;;;;;;;;;1035159;28;20492;-76
2022/12/04 02:52:43;;;;;;;35.92;15.55;;;;;;;;;;1035633;28;20029;-76
2022/12/04 02:53:22;;;;;;;36.38;16.80;;;;;;;;;;1038985;28;20112;-76
2022/12/04 02:53:56;;;;;;;45.13;16.17;;;;;;;;;;1039958;28;20616;-76
2022/12/04 02:54:34;;;;;;;47.03;18.27;;;;;;;;;;1039915;28;20017;-76
2022/12/04 02:55:07;;;;;;;40.30;16.05;;;;;;;;;;1039855;28;20029;-76
2022/12/04 02:55:42;;;;;;;42.17;17.85;;;;;;;;;;1039310;28;20203;-76
2022/12/04 02:56:18;;;;;;;37.97;17.77;;;;;;;;;;1039574;28;20022;-76
2022/12/04 02:56:49;;;;;;;47.25;17.60;;;;;;;;;;1039453;28;20026;-76
2022/12/04 02:57:21;;;;;;;45.97;20.92;;;;;;;;;;1038225;28;20037;-76
2022/12/04 02:57:55;;;;;;;50.85;21.10;;;;;;;;;;1039593;28;20033;-76
2022/12/04 02:58:38;;;;;;;50.55;19.50;;;;;;;;;;1037389;28;20548;-76
2022/12/04 02:59:14;;;;;;;41.00;17.10;;;;;;;;;;1039179;28;20113;-76
2022/12/04 02:59:46;;;;;;;44.50;19.20;;;;;;;;;;1037048;28;20084;-76
2022/12/04 03:00:17;;;;;;;50.85;19.70;;;;;;;;;;1038348;28;20064;-76
2022/12/04 03:00:49;;;;;;;38.08;19.17;;;;;;;;;;1039531;28;20037;-76
2022/12/04 03:01:22;;;;;;;45.30;20.20;;;;;;;;;;1038799;28;20028;-76
2022/12/04 03:01:54;;;;;;;51.97;21.00;;;;;;;;;;1039489;28;20075;-76
2022/12/04 03:02:28;;;;;;;45.47;20.60;;;;;;;;;;1039636;28;20668;-76
2022/12/04 03:03:02;;;;;;;40.58;18.38;;;;;;;;;;1039311;28;20029;-76
2022/12/04 03:03:34;;;;;;;52.83;20.20;;;;;;;;;;1039583;28;20033;-76
2022/12/04 03:04:08;;;;;;;49.85;19.88;;;;;;;;;;1039702;28;20021;-76
2022/12/04 03:04:40;;;;;;;47.70;22.08;;;;;;;;;;1039390;28;20026;-76
2022/12/04 03:05:12;;;;;;;57.83;22.15;;;;;;;;;;1039363;28;20029;-76
2022/12/04 03:05:53;;;;;;;39.40;20.83;;;;;;;;;;1039089;28;20025;-76
2022/12/04 03:06:24;;;;;;;59.35;23.55;;;;;;;;;;1039075;28;20076;-76
2022/12/04 03:06:58;;;;;;;48.78;22.35;;;;;;;;;;1039773;28;20022;-76
2022/12/04 03:07:31;;;;;;;44.33;22.00;;;;;;;;;;1039295;28;20121;-76
2022/12/04 03:08:08;;;;;;;55.70;22.65;;;;;;;;;;1039496;28;20021;-76
2022/12/04 03:08:44;;;;;;;47.72;21.55;;;;;;;;;;1039317;28;20056;-77
2022/12/04 03:09:21;;;;;;;49.83;20.73;;;;;;;;;;1038985;28;20473;-77
2022/12/04 03:09:53;;;;;;;53.08;20.00;;;;;;;;;;1039477;28;20605;-77
2022/12/04 03:10:26;;;;;;;59.03;20.58;;;;;;;;;;1039535;28;20417;-77
2022/12/04 03:10:59;;;;;;;44.75;20.75;;;;;;;;;;1038813;28;20014;-76
2022/12/04 03:11:32;;;;;;;40.15;20.20;;;;;;;;;;1039264;28;20034;-76
2022/12/04 03:12:14;;;;;;;49.60;22.75;;;;;;;;;;1039263;28;20040;-76
2022/12/04 03:12:49;;;;;;;53.97;20.60;;;;;;;;;;1039432;28;20049;-76
2022/12/04 03:13:25;;;;;;;52.28;23.58;;;;;;;;;;1039622;28;20162;-76
2022/12/04 03:13:59;;;;;;;64.00;23.38;;;;;;;;;;1039766;28;20021;-76
2022/12/04 03:14:32;;;;;;;41.58;22.65;;;;;;;;;;1041190;28;20017;-76